Time;durP1;ratioP1;P1;durP2;ratioP2;P2;SDS_P1;SDS_P2;PMS_P1;PMS_P2;Temp;Humidity;BMP_temperature;BMP_pressure;BME280_temperature;BME280_humidity;BME280_pressure;Samples;Min_cycle;Max_cycle;Signal;HPM_P1;HPM_P2
2022/09/03 00:02:01;;;;;;;1.15;0.98;;;17.90;74.10;;;;;;5035170;28;20026;-80
2022/09/03 00:04:57;;;;;;;2.20;1.13;;;17.90;74.20;;;;;;5037631;28;20026;-80
2022/09/03 00:07:41;;;;;;;3.65;0.90;;;17.90;73.30;;;;;;5047878;28;20030;-80
2022/09/03 00:10:13;;;;;;;2.72;1.02;;;17.80;74.30;;;;;;5047274;28;20026;-81
2022/09/03 00:12:43;;;;;;;3.78;0.70;;;17.80;73.70;;;;;;5025569;28;20033;-80
2022/09/03 00:15:28;;;;;;;1.55;0.90;;;17.70;74.20;;;;;;5033746;28;20506;-80
2022/09/03 00:18:27;;;;;;;2.60;0.68;;;17.80;74.40;;;;;;5039232;28;20033;-80
2022/09/03 00:21:21;;;;;;;1.95;0.85;;;17.80;74.00;;;;;;5038557;28;20497;-81
2022/09/03 00:23:49;;;;;;;1.95;1.10;;;17.80;74.60;;;;;;5034176;28;20025;-80
2022/09/03 00:26:34;;;;;;;1.20;1.10;;;17.80;74.60;;;;;;5037774;28;20034;-81
2022/09/03 00:29:07;;;;;;;0.88;0.65;;;17.80;74.90;;;;;;5037950;28;20049;-81
2022/09/03 00:31:50;;;;;;;1.75;0.88;;;17.70;74.60;;;;;;5034930;28;20052;-81
2022/09/03 00:34:25;;;;;;;3.97;0.90;;;17.80;74.60;;;;;;5038733;28;20037;-81
2022/09/03 00:36:52;;;;;;;1.63;1.05;;;17.80;74.80;;;;;;5041759;28;20029;-81
2022/09/03 00:39:21;;;;;;;1.30;0.95;;;17.70;75.30;;;;;;5047419;28;20490;-81
2022/09/03 00:41:52;;;;;;;2.00;0.80;;;17.70;74.80;;;;;;5031811;28;20029;-81
2022/09/03 00:44:30;;;;;;;2.45;0.80;;;17.60;74.90;;;;;;5010398;28;20577;-80
2022/09/03 00:47:06;;;;;;;2.20;0.82;;;17.70;75.00;;;;;;5035728;28;20029;-81
2022/09/03 00:49:49;;;;;;;1.42;0.60;;;17.60;75.20;;;;;;5041320;28;20025;-80
2022/09/03 00:52:24;;;;;;;0.60;0.60;;;17.50;75.50;;;;;;5042484;28;20033;-81
2022/09/03 00:55:12;;;;;;;3.03;0.95;;;17.60;75.30;;;;;;5028533;28;20292;-80
2022/09/03 00:57:52;;;;;;;4.05;1.20;;;17.60;75.60;;;;;;5036358;28;20482;-80
2022/09/03 01:00:19;;;;;;;1.92;0.73;;;17.60;75.30;;;;;;5041666;28;20024;-80
2022/09/03 01:03:06;;;;;;;4.07;1.20;;;17.60;75.90;;;;;;5034366;28;20049;-79
2022/09/03 01:05:52;;;;;;;0.95;0.60;;;17.70;75.40;;;;;;5047441;28;20018;-80
2022/09/03 01:08:43;;;;;;;3.22;0.60;;;17.70;75.30;;;;;;5030605;28;20026;-80
2022/09/03 01:11:36;;;;;;;1.20;0.70;;;17.60;75.40;;;;;;5039800;28;20030;-80
2022/09/03 01:14:31;;;;;;;2.22;1.00;;;17.60;75.50;;;;;;5031027;28;20026;-80
2022/09/03 01:17:48;;;;;;;1.30;0.90;;;17.50;75.60;;;;;;5035385;28;20488;-79
2022/09/03 01:20:22;;;;;;;1.08;0.75;;;17.50;75.60;;;;;;5064162;28;20052;-79
2022/09/03 01:23:20;;;;;;;1.08;0.80;;;17.60;75.80;;;;;;5035459;28;20444;-81
2022/09/03 01:26:06;;;;;;;1.80;1.00;;;17.50;75.40;;;;;;5037466;28;20037;-81
2022/09/03 01:28:39;;;;;;;1.08;0.98;;;17.60;75.50;;;;;;5035825;28;20029;-81
2022/09/03 01:31:25;;;;;;;0.90;0.55;;;17.70;75.20;;;;;;5038546;28;20383;-81
2022/09/03 01:34:11;;;;;;;4.45;0.88;;;17.50;75.30;;;;;;5047193;28;20382;-81
2022/09/03 01:36:46;;;;;;;0.73;0.70;;;17.60;75.30;;;;;;5029363;28;20067;-81
2022/09/03 01:39:29;;;;;;;0.95;0.85;;;17.60;74.60;;;;;;5033695;28;20508;-80
2022/09/03 01:42:36;;;;;;;0.75;0.65;;;17.60;75.30;;;;;;5030886;28;20025;-81
2022/09/03 01:45:36;;;;;;;0.73;0.65;;;17.50;76.10;;;;;;5011444;28;20069;-80
2022/09/03 01:48:04;;;;;;;2.28;0.73;;;17.50;76.30;;;;;;5053630;28;20568;-80
2022/09/03 01:51:11;;;;;;;2.15;0.63;;;17.50;75.90;;;;;;5030843;28;20044;-80
2022/09/03 01:54:17;;;;;;;3.40;1.00;;;17.30;76.40;;;;;;5031809;28;20036;-80
2022/09/03 01:57:10;;;;;;;1.38;0.60;;;17.30;76.60;;;;;;5024925;28;20037;-81
2022/09/03 02:00:04;;;;;;;1.00;0.67;;;17.30;77.20;;;;;;5026537;28;20032;-80
2022/09/03 02:02:30;;;;;;;;;;;17.40;76.40;;;;;;5032516;28;20040;-80
2022/09/03 02:05:01;;;;;;;0.93;0.60;;;17.50;76.60;;;;;;5039626;28;19964;-81
2022/09/03 02:07:34;;;;;;;4.13;0.90;;;17.50;76.50;;;;;;5026725;28;20318;-81
2022/09/03 02:10:01;;;;;;;3.25;1.60;;;17.40;77.00;;;;;;5020714;28;20499;-81
2022/09/03 02:12:32;;;;;;;4.97;1.10;;;17.40;76.80;;;;;;5026702;28;20021;-81
2022/09/03 02:15:02;;;;;;;1.52;0.82;;;17.50;76.70;;;;;;5035228;28;20069;-81
2022/09/03 02:17:29;;;;;;;2.17;1.10;;;17.30;76.80;;;;;;5045783;28;20049;-81
2022/09/03 02:19:55;;;;;;;1.77;0.80;;;17.30;76.60;;;;;;5041571;28;20085;-81
2022/09/03 02:22:20;;;;;;;7.80;2.30;;;17.30;76.90;;;;;;5039362;28;20722;-80
2022/09/03 02:24:46;;;;;;;1.70;1.02;;;17.40;76.70;;;;;;5034627;28;20029;-81
2022/09/03 02:27:12;;;;;;;0.88;0.75;;;17.30;76.90;;;;;;5037797;28;20033;-81
2022/09/03 02:29:38;;;;;;;1.15;1.05;;;17.40;77.00;;;;;;5033502;28;20052;-80
2022/09/03 02:32:05;;;;;;;2.38;0.82;;;17.30;77.40;;;;;;5028403;28;20045;-80
2022/09/03 02:34:31;;;;;;;2.65;0.90;;;17.20;77.50;;;;;;5040522;28;20033;-81
2022/09/03 02:36:57;;;;;;;1.15;1.05;;;17.20;76.70;;;;;;5040895;28;20025;-80
2022/09/03 02:39:23;;;;;;;1.45;0.93;;;17.20;76.60;;;;;;5033179;28;20034;-80
2022/09/03 02:41:57;;;;;;;0.85;0.70;;;17.20;77.00;;;;;;5034544;28;20029;-81
2022/09/03 02:44:30;;;;;;;2.70;0.98;;;17.20;77.30;;;;;;5041698;28;20040;-81
2022/09/03 02:47:02;;;;;;;1.90;0.93;;;17.20;77.50;;;;;;5033996;28;20025;-81
2022/09/03 02:49:28;;;;;;;3.28;1.05;;;17.20;77.80;;;;;;5035227;28;20041;-79
2022/09/03 02:52:05;;;;;;;1.23;0.85;;;17.10;77.70;;;;;;5044434;28;20026;-81
2022/09/03 02:54:34;;;;;;;1.92;1.00;;;17.10;78.10;;;;;;5045776;28;20983;-80
2022/09/03 02:57:00;;;;;;;2.35;0.82;;;16.90;77.50;;;;;;5033468;28;20034;-81
2022/09/03 02:59:29;;;;;;;2.65;0.70;;;16.90;77.90;;;;;;5030283;28;20026;-80
2022/09/03 03:01:55;;;;;;;1.80;0.70;;;16.80;77.90;;;;;;5032593;28;20075;-81
2022/09/03 03:04:22;;;;;;;1.52;0.95;;;16.90;77.90;;;;;;5034334;28;20021;-80
2022/09/03 03:06:49;;;;;;;1.30;0.93;;;17.00;77.90;;;;;;5030811;28;20026;-81
2022/09/03 03:09:16;;;;;;;1.67;0.90;;;16.90;78.20;;;;;;5034386;28;20045;-80
2022/09/03 03:11:42;;;;;;;3.20;1.10;;;17.00;78.00;;;;;;5032693;28;20030;-81
2022/09/03 03:14:08;;;;;;;4.45;1.23;;;16.90;78.00;;;;;;5038066;28;20033;-81
2022/09/03 03:16:34;;;;;;;1.50;0.98;;;16.90;78.40;;;;;;5034478;28;20537;-81
2022/09/03 03:19:00;;;;;;;1.48;0.88;;;16.80;78.50;;;;;;5026860;28;20026;-80
2022/09/03 03:21:26;;;;;;;0.80;0.60;;;16.90;78.50;;;;;;5047802;28;20032;-81
2022/09/03 03:23:51;;;;;;;1.33;1.20;;;16.90;78.80;;;;;;5043089;28;20025;-82
2022/09/03 03:26:19;;;;;;;1.95;1.10;;;16.90;78.90;;;;;;5045024;28;20032;-81
2022/09/03 03:28:47;;;;;;;1.13;0.93;;;16.90;78.90;;;;;;5036506;28;20025;-80
2022/09/03 03:31:19;;;;;;;1.80;0.90;;;16.90;78.50;;;;;;5030173;28;20052;-80
2022/09/03 03:33:53;;;;;;;1.33;0.80;;;16.90;78.60;;;;;;5031898;28;20029;-82
2022/09/03 03:36:20;;;;;;;1.20;1.10;;;16.90;78.50;;;;;;5041533;28;20052;-80
2022/09/03 03:38:46;;;;;;;1.42;0.88;;;16.90;78.70;;;;;;5042005;28;20112;-80
2022/09/03 03:41:18;;;;;;;1.25;1.15;;;16.80;79.00;;;;;;5044763;28;20122;-81
2022/09/03 03:43:44;;;;;;;0.63;0.63;;;16.90;78.90;;;;;;5046770;28;20045;-81
2022/09/03 03:46:11;;;;;;;3.83;1.25;;;17.00;78.50;;;;;;5050012;28;20030;-81
2022/09/03 03:48:38;;;;;;;0.63;0.57;;;16.90;78.90;;;;;;5044913;28;20028;-81
2022/09/03 03:51:06;;;;;;;3.25;0.77;;;16.80;79.20;;;;;;5035788;28;20041;-81
2022/09/03 03:53:37;;;;;;;1.10;0.90;;;16.80;79.00;;;;;;5038950;28;21557;-81
2022/09/03 03:56:05;;;;;;;2.30;0.85;;;16.80;78.90;;;;;;5053341;28;20056;-81
2022/09/03 03:58:32;;;;;;;1.48;0.90;;;16.70;79.40;;;;;;5050458;28;20037;-81
2022/09/03 04:01:15;;;;;;;2.58;1.13;;;16.70;79.00;;;;;;5028052;28;20032;-81
2022/09/03 04:03:42;;;;;;;1.73;0.90;;;16.70;78.80;;;;;;5031274;28;20117;-80
2022/09/03 04:06:08;;;;;;;1.05;0.90;;;16.70;79.20;;;;;;5041547;28;20030;-81
2022/09/03 04:08:36;;;;;;;3.67;1.05;;;16.70;79.50;;;;;;5041889;28;20052;-81
2022/09/03 04:11:04;;;;;;;4.82;0.77;;;16.80;79.40;;;;;;5037174;28;20033;-81
2022/09/03 04:13:31;;;;;;;0.65;0.65;;;16.70;80.00;;;;;;5035332;28;20025;-81
2022/09/03 04:16:08;;;;;;;1.88;1.00;;;16.70;79.50;;;;;;5039465;28;20121;-81
2022/09/03 04:18:38;;;;;;;1.33;0.98;;;16.60;79.80;;;;;;5034258;28;20051;-81
2022/09/03 04:21:07;;;;;;;1.38;0.93;;;16.60;80.00;;;;;;5036019;28;20436;-80
2022/09/03 04:23:34;;;;;;;1.00;0.90;;;16.70;79.90;;;;;;5031325;28;20064;-81
2022/09/03 04:26:00;;;;;;;0.82;0.82;;;16.60;79.80;;;;;;5031277;28;20394;-80
2022/09/03 04:28:26;;;;;;;3.03;0.85;;;16.60;79.70;;;;;;5041361;28;20501;-81
2022/09/03 04:30:52;;;;;;;1.55;1.05;;;16.50;79.40;;;;;;5035306;28;20038;-81
2022/09/03 04:33:19;;;;;;;1.60;1.00;;;16.50;79.90;;;;;;5035308;28;20057;-81
2022/09/03 04:35:45;;;;;;;2.88;0.88;;;16.50;79.80;;;;;;5056105;28;20030;-80
2022/09/03 04:38:11;;;;;;;2.20;0.85;;;16.50;80.40;;;;;;5041450;28;20038;-80
2022/09/03 04:40:38;;;;;;;1.73;0.70;;;16.60;79.60;;;;;;5035552;28;20121;-81
2022/09/03 04:43:03;;;;;;;1.35;0.95;;;16.70;79.80;;;;;;5031085;28;20030;-81
2022/09/03 04:45:29;;;;;;;1.58;0.90;;;16.70;79.80;;;;;;5030751;28;20063;-80
2022/09/03 04:47:56;;;;;;;2.47;0.85;;;16.70;79.70;;;;;;5034331;28;20070;-81
2022/09/03 04:50:22;;;;;;;1.63;0.90;;;16.60;80.50;;;;;;5034751;28;20083;-80
2022/09/03 04:52:48;;;;;;;1.48;0.75;;;16.60;80.90;;;;;;5038850;28;20022;-80
2022/09/03 04:55:14;;;;;;;1.13;0.90;;;16.60;80.40;;;;;;5043069;28;20040;-79
2022/09/03 04:57:41;;;;;;;1.05;0.90;;;16.60;80.20;;;;;;5043239;28;20055;-79
2022/09/03 05:00:10;;;;;;;0.95;0.90;;;16.60;80.50;;;;;;5048447;28;20040;-78
2022/09/03 05:02:36;;;;;;;0.95;0.75;;;16.70;80.40;;;;;;5049533;28;20053;-79
2022/09/03 05:05:02;;;;;;;1.00;0.85;;;16.70;80.30;;;;;;5036761;28;20036;-79
2022/09/03 05:07:37;;;;;;;2.13;1.00;;;16.70;80.10;;;;;;5035472;28;20036;-79
2022/09/03 05:10:12;;;;;;;1.10;0.70;;;16.70;80.00;;;;;;5043576;28;20025;-79
2022/09/03 05:12:38;;;;;;;1.45;1.17;;;16.70;80.60;;;;;;5047616;28;20079;-80
2022/09/03 05:15:05;;;;;;;1.10;0.80;;;16.60;80.70;;;;;;5034646;28;20037;-79
2022/09/03 05:17:31;;;;;;;1.80;1.02;;;16.70;80.60;;;;;;5035840;28;20083;-79
2022/09/03 05:19:56;;;;;;;1.35;0.88;;;16.70;81.20;;;;;;5039675;28;20018;-78
2022/09/03 05:22:22;;;;;;;3.90;0.70;;;16.70;80.70;;;;;;5045127;28;20381;-79
2022/09/03 05:24:48;;;;;;;1.30;0.88;;;16.80;80.80;;;;;;5028318;28;20026;-79
2022/09/03 05:27:15;;;;;;;1.05;0.85;;;16.70;81.20;;;;;;5058046;28;20040;-78
2022/09/03 05:29:42;;;;;;;1.20;0.82;;;16.70;80.80;;;;;;5040328;28;20091;-78
2022/09/03 05:32:08;;;;;;;1.05;0.80;;;16.80;81.20;;;;;;5031628;28;20048;-79
2022/09/03 05:34:34;;;;;;;2.42;0.95;;;16.60;80.60;;;;;;5034808;28;20032;-79
2022/09/03 05:37:00;;;;;;;1.90;0.65;;;16.70;81.00;;;;;;5033060;28;20018;-79
2022/09/03 05:39:26;;;;;;;1.83;0.80;;;16.80;80.70;;;;;;5038063;28;20029;-78
2022/09/03 05:41:52;;;;;;;0.70;0.70;;;16.80;81.60;;;;;;5039911;28;20119;-79
2022/09/03 05:44:20;;;;;;;2.55;0.77;;;16.80;80.70;;;;;;5052400;28;20078;-79
2022/09/03 05:46:46;;;;;;;1.02;0.90;;;16.80;80.80;;;;;;5033379;28;20066;-79
2022/09/03 05:49:15;;;;;;;1.67;1.00;;;16.80;81.10;;;;;;5039623;28;20026;-79
2022/09/03 05:51:41;;;;;;;1.58;0.60;;;16.90;81.30;;;;;;5045742;28;20482;-79
2022/09/03 05:54:08;;;;;;;3.58;1.00;;;16.90;81.90;;;;;;5037578;28;20041;-78
2022/09/03 05:56:35;;;;;;;1.10;0.60;;;16.90;81.40;;;;;;5062758;28;20033;-79
2022/09/03 05:59:05;;;;;;;2.80;0.90;;;16.90;81.40;;;;;;5034862;28;20041;-79
2022/09/03 06:01:41;;;;;;;1.08;0.90;;;17.00;81.20;;;;;;5055625;28;20048;-79
2022/09/03 06:04:09;;;;;;;1.23;0.90;;;17.00;81.60;;;;;;5036464;28;20030;-79
2022/09/03 06:06:37;;;;;;;1.17;0.98;;;16.90;81.50;;;;;;5056440;28;20017;-79
2022/09/03 06:09:06;;;;;;;2.28;0.95;;;16.90;81.80;;;;;;5041925;28;20037;-79
2022/09/03 06:11:34;;;;;;;2.33;1.17;;;17.00;82.10;;;;;;5033453;28;20028;-80
2022/09/03 06:14:01;;;;;;;2.80;1.17;;;17.00;81.30;;;;;;5029983;28;20026;-80
2022/09/03 06:16:28;;;;;;;1.33;0.80;;;17.10;81.70;;;;;;5027278;28;20032;-78
2022/09/03 06:18:55;;;;;;;3.05;0.77;;;17.20;81.20;;;;;;5038630;28;20116;-80
2022/09/03 06:21:21;;;;;;;0.90;0.80;;;17.10;81.20;;;;;;5033443;28;20026;-81
2022/09/03 06:23:51;;;;;;;1.02;0.70;;;17.20;81.00;;;;;;5029043;28;20026;-81
2022/09/03 06:26:20;;;;;;;1.77;0.75;;;17.30;80.70;;;;;;5043159;28;20131;-79
2022/09/03 06:28:49;;;;;;;2.80;0.98;;;17.30;80.90;;;;;;5030219;28;20095;-79
2022/09/03 06:31:18;;;;;;;2.72;1.23;;;17.20;80.40;;;;;;5038718;28;20097;-79
2022/09/03 06:33:46;;;;;;;2.08;0.82;;;17.30;80.40;;;;;;5047840;28;20028;-79
2022/09/03 06:36:17;;;;;;;0.95;0.65;;;17.30;81.10;;;;;;5043042;28;20087;-79
2022/09/03 06:38:44;;;;;;;1.77;0.90;;;17.30;82.10;;;;;;5038887;28;20060;-79
2022/09/03 06:41:20;;;;;;;2.45;0.63;;;17.30;81.20;;;;;;5050933;28;20029;-79
2022/09/03 06:43:47;;;;;;;1.23;0.82;;;17.40;81.60;;;;;;5034870;28;20043;-79
2022/09/03 06:46:15;;;;;;;4.53;1.20;;;17.40;81.40;;;;;;5037783;28;20032;-79
2022/09/03 06:48:41;;;;;;;2.17;0.90;;;17.50;81.60;;;;;;5031445;28;20071;-79
2022/09/03 06:51:12;;;;;;;2.78;0.90;;;17.50;81.60;;;;;;5034417;28;20568;-79
2022/09/03 06:53:40;;;;;;;1.45;1.08;;;17.50;81.40;;;;;;5037797;28;20084;-79
2022/09/03 06:56:09;;;;;;;0.95;0.70;;;17.60;81.30;;;;;;5030929;28;20033;-79
2022/09/03 06:58:43;;;;;;;2.13;0.90;;;17.60;81.20;;;;;;5062594;28;20509;-79
2022/09/03 07:01:12;;;;;;;1.23;0.95;;;17.70;80.70;;;;;;5045109;28;20067;-80
2022/09/03 07:03:40;;;;;;;1.50;0.80;;;17.80;80.70;;;;;;5031664;28;20085;-79
2022/09/03 07:06:08;;;;;;;1.67;0.90;;;17.80;80.60;;;;;;5044445;28;20026;-79
2022/09/03 07:08:34;;;;;;;2.08;1.45;;;17.80;80.60;;;;;;5031945;28;20490;-79
2022/09/03 07:11:07;;;;;;;1.48;1.00;;;18.00;80.50;;;;;;5025226;28;20071;-79
2022/09/03 07:13:34;;;;;;;1.52;1.10;;;18.20;80.00;;;;;;5042149;28;20044;-79
2022/09/03 07:16:22;;;;;;;2.25;0.82;;;18.40;79.60;;;;;;5033774;28;20034;-79
2022/09/03 07:18:48;;;;;;;2.30;0.80;;;18.50;79.80;;;;;;5029950;28;20032;-79
2022/09/03 07:21:28;;;;;;;2.58;1.35;;;18.60;78.90;;;;;;5030442;28;20489;-79
2022/09/03 07:23:54;;;;;;;1.02;0.70;;;18.60;78.70;;;;;;5027037;28;20048;-78
2022/09/03 07:26:21;;;;;;;3.00;1.08;;;18.70;78.90;;;;;;5042590;28;20111;-79
2022/09/03 07:28:48;;;;;;;0.80;0.80;;;18.70;78.30;;;;;;5026142;28;20029;-79
2022/09/03 07:31:25;;;;;;;1.77;0.90;;;18.80;78.40;;;;;;5037423;28;20026;-79
2022/09/03 07:33:58;;;;;;;1.58;0.80;;;18.80;78.10;;;;;;5031245;28;20036;-79
2022/09/03 07:36:25;;;;;;;;;;;18.90;78.40;;;;;;5035260;28;20032;-79
2022/09/03 07:38:57;;;;;;;2.15;1.20;;;18.90;78.00;;;;;;5042162;28;19920;-79
2022/09/03 07:41:25;;;;;;;3.88;1.00;;;18.90;77.90;;;;;;5035706;28;20519;-79
2022/09/03 07:43:51;;;;;;;1.67;0.98;;;18.80;77.80;;;;;;5042093;28;20061;-79
2022/09/03 07:46:23;;;;;;;2.08;1.10;;;18.80;78.70;;;;;;5036396;28;20025;-79
2022/09/03 07:48:55;;;;;;;4.97;0.90;;;18.80;78.90;;;;;;5026746;28;20030;-79
2022/09/03 07:51:26;;;;;;;1.40;0.90;;;18.80;78.30;;;;;;5050111;28;20486;-78
2022/09/03 07:53:56;;;;;;;1.25;1.15;;;18.90;78.20;;;;;;5042022;28;20055;-79
2022/09/03 07:56:23;;;;;;;2.22;1.13;;;19.00;79.30;;;;;;5036228;28;20537;-81
2022/09/03 07:58:50;;;;;;;1.42;0.90;;;19.00;78.60;;;;;;5030198;28;20125;-81
2022/09/03 08:01:20;;;;;;;1.00;0.90;;;19.10;78.20;;;;;;5032974;28;20551;-80
2022/09/03 08:03:49;;;;;;;3.15;1.38;;;19.20;78.10;;;;;;5024011;28;20056;-80
2022/09/03 08:06:16;;;;;;;4.05;1.02;;;19.30;78.10;;;;;;5028052;28;20025;-78
2022/09/03 08:08:44;;;;;;;0.82;0.80;;;19.40;78.20;;;;;;5027997;28;20098;-79
2022/09/03 08:11:15;;;;;;;1.42;1.08;;;19.50;77.80;;;;;;5033859;28;20033;-80
2022/09/03 08:13:44;;;;;;;1.48;0.98;;;19.60;77.70;;;;;;5034498;28;20033;-80
2022/09/03 08:16:19;;;;;;;1.58;1.00;;;19.70;77.70;;;;;;5032352;28;20041;-80
2022/09/03 08:18:46;;;;;;;3.03;0.95;;;19.80;77.80;;;;;;5036725;28;20072;-79
2022/09/03 08:21:18;;;;;;;1.98;0.90;;;19.70;77.40;;;;;;5037615;28;20561;-80
2022/09/03 08:23:48;;;;;;;1.88;0.90;;;19.60;77.20;;;;;;5037069;28;20453;-82
2022/09/03 08:26:15;;;;;;;1.38;1.20;;;19.50;77.50;;;;;;5032116;28;20030;-77
2022/09/03 08:28:42;;;;;;;1.95;1.30;;;19.50;77.70;;;;;;5017560;28;20037;-78
2022/09/03 08:31:21;;;;;;;2.40;1.30;;;19.50;77.70;;;;;;5018547;28;20034;-77
2022/09/03 08:33:50;;;;;;;1.92;1.73;;;19.60;77.70;;;;;;5032681;28;20037;-77
2022/09/03 08:36:17;;;;;;;1.75;1.63;;;19.50;77.70;;;;;;5049783;28;20040;-77
2022/09/03 08:38:45;;;;;;;2.85;2.03;;;19.40;77.80;;;;;;5037756;28;20646;-77
2022/09/03 08:41:18;;;;;;;2.45;1.73;;;19.40;78.00;;;;;;5028583;28;20022;-78
2022/09/03 08:44:03;;;;;;;2.17;1.98;;;19.40;78.10;;;;;;5040414;28;20024;-76
2022/09/03 08:47:03;;;;;;;5.10;1.70;;;19.40;78.50;;;;;;5035441;28;20041;-77
2022/09/03 08:49:48;;;;;;;3.85;2.05;;;19.40;78.70;;;;;;5029287;28;20033;-78
2022/09/03 08:52:47;;;;;;;2.15;1.88;;;19.40;78.70;;;;;;5022286;28;20527;-77
2022/09/03 08:55:16;;;;;;;2.25;1.90;;;19.30;79.20;;;;;;5035398;28;20036;-77
2022/09/03 08:57:53;;;;;;;2.20;2.00;;;19.40;80.60;;;;;;5034726;28;20029;-77
2022/09/03 09:00:21;;;;;;;2.17;1.83;;;19.30;80.60;;;;;;5046481;28;20075;-77
2022/09/03 09:03:08;;;;;;;2.53;1.80;;;19.30;80.70;;;;;;5041736;28;20036;-77
2022/09/03 09:05:50;;;;;;;2.05;1.85;;;19.30;80.90;;;;;;5042689;28;20017;-76
2022/09/03 09:08:53;;;;;;;2.30;2.10;;;19.30;81.00;;;;;;5035949;28;20087;-77
2022/09/03 09:11:25;;;;;;;2.10;1.90;;;19.30;80.80;;;;;;5027849;28;20026;-77
2022/09/03 09:14:13;;;;;;;2.85;2.08;;;19.30;81.30;;;;;;5038852;28;20024;-77
2022/09/03 09:16:51;;;;;;;3.50;2.22;;;19.30;81.30;;;;;;5044592;28;20088;-77
2022/09/03 09:19:46;;;;;;;2.45;2.25;;;19.30;81.20;;;;;;5037970;28;20036;-78
2022/09/03 09:22:25;;;;;;;2.85;2.25;;;19.30;81.20;;;;;;5037622;28;20032;-78
2022/09/03 09:24:54;;;;;;;3.75;2.80;;;19.30;81.40;;;;;;5035230;28;20053;-77
2022/09/03 09:27:20;;;;;;;3.95;2.42;;;19.30;81.60;;;;;;5046618;28;20072;-78
2022/09/03 09:29:49;;;;;;;3.00;1.70;;;19.30;82.00;;;;;;5045438;28;20026;-78
2022/09/03 09:32:17;;;;;;;2.47;1.73;;;19.30;83.30;;;;;;5022399;28;20021;-77
2022/09/03 09:34:43;;;;;;;2.30;2.08;;;19.30;83.30;;;;;;5039016;28;20136;-77
2022/09/03 09:37:12;;;;;;;2.38;2.10;;;19.30;83.60;;;;;;5038853;28;20109;-78
2022/09/03 09:39:40;;;;;;;3.20;2.30;;;19.30;83.60;;;;;;5031070;28;20028;-77
2022/09/03 09:42:10;;;;;;;2.10;1.80;;;19.30;83.80;;;;;;5037032;28;20109;-78
2022/09/03 09:44:42;;;;;;;3.03;2.40;;;19.40;84.70;;;;;;5051322;28;20025;-78
2022/09/03 09:47:40;;;;;;;2.85;2.33;;;19.30;83.80;;;;;;5045278;28;20685;-78
2022/09/03 09:50:20;;;;;;;4.30;2.15;;;19.30;84.20;;;;;;5019474;28;20406;-77
2022/09/03 09:52:45;;;;;;;2.40;2.20;;;19.30;84.10;;;;;;5040766;28;20036;-78
2022/09/03 09:55:18;;;;;;;3.10;2.42;;;19.30;83.40;;;;;;5032361;28;20033;-78
2022/09/03 09:57:44;;;;;;;3.63;2.65;;;19.30;83.30;;;;;;5036349;28;20029;-78
2022/09/03 10:00:16;;;;;;;2.75;2.30;;;19.20;83.60;;;;;;5019169;28;20414;-78
2022/09/03 10:02:53;;;;;;;3.75;2.30;;;19.20;83.40;;;;;;5048805;28;20025;-78
2022/09/03 10:05:29;;;;;;;2.55;2.15;;;19.30;83.90;;;;;;5040584;28;20049;-78
2022/09/03 10:08:03;;;;;;;2.70;2.38;;;19.30;83.80;;;;;;5048433;28;20028;-78
2022/09/03 10:10:33;;;;;;;3.30;2.20;;;19.30;83.90;;;;;;5038053;28;20046;-78
2022/09/03 10:13:11;;;;;;;2.65;1.88;;;19.30;83.80;;;;;;5032087;28;20060;-78
2022/09/03 10:16:00;;;;;;;4.20;2.83;;;19.30;83.60;;;;;;5049260;28;20025;-77
2022/09/03 10:18:45;;;;;;;2.20;2.00;;;19.40;83.30;;;;;;5056857;28;20036;-78
2022/09/03 10:21:17;;;;;;;3.78;2.30;;;19.30;83.00;;;;;;5034860;28;20033;-78
2022/09/03 10:24:04;;;;;;;4.78;2.70;;;19.30;83.40;;;;;;5043621;28;20445;-78
2022/09/03 10:26:29;;;;;;;2.97;2.67;;;19.30;83.20;;;;;;5041627;28;20291;-79
2022/09/03 10:28:58;;;;;;;2.92;2.60;;;19.30;83.10;;;;;;5031461;28;21363;-78
2022/09/03 10:31:35;;;;;;;2.70;2.40;;;19.30;83.10;;;;;;5037615;28;20076;-79
2022/09/03 10:34:23;;;;;;;2.80;2.58;;;19.20;83.20;;;;;;5038617;28;20491;-79
2022/09/03 10:37:16;;;;;;;3.28;2.42;;;19.20;83.30;;;;;;5042271;28;20025;-79
2022/09/03 10:39:42;;;;;;;3.85;2.88;;;19.20;83.30;;;;;;5040342;28;20025;-78
2022/09/03 10:42:34;;;;;;;4.47;3.38;;;19.30;83.30;;;;;;5039945;28;20029;-77
2022/09/03 10:45:03;;;;;;;2.47;2.10;;;19.30;83.30;;;;;;5035529;28;20029;-78
2022/09/03 10:47:56;;;;;;;7.05;2.90;;;19.30;84.20;;;;;;5040855;28;20029;-78
2022/09/03 10:50:36;;;;;;;3.28;2.63;;;19.40;83.80;;;;;;5043953;28;20030;-77
2022/09/03 10:53:05;;;;;;;4.90;2.75;;;19.40;83.90;;;;;;5043985;28;20075;-78
2022/09/03 10:56:02;;;;;;;4.15;2.95;;;19.40;84.20;;;;;;5043230;28;20395;-78
2022/09/03 10:58:57;;;;;;;3.20;2.30;;;19.40;83.80;;;;;;5040306;28;20033;-77
2022/09/03 11:01:28;;;;;;;4.03;2.17;;;19.40;84.20;;;;;;5045101;28;20018;-77
2022/09/03 11:04:32;;;;;;;3.08;2.30;;;19.40;84.20;;;;;;5042389;28;20478;-78
2022/09/03 11:07:04;;;;;;;4.63;3.00;;;19.40;84.20;;;;;;5043511;28;20025;-78
2022/09/03 11:09:47;;;;;;;3.00;2.45;;;19.40;84.50;;;;;;5048737;28;20029;-77
2022/09/03 11:12:21;;;;;;;7.07;2.85;;;19.40;84.40;;;;;;5042218;28;20030;-77
2022/09/03 11:15:02;;;;;;;3.05;2.75;;;19.40;84.30;;;;;;5043626;28;20030;-78
2022/09/03 11:17:48;;;;;;;4.30;2.45;;;19.40;84.40;;;;;;5052479;28;20534;-77
2022/09/03 11:20:20;;;;;;;2.83;1.90;;;19.50;84.80;;;;;;5040380;28;20475;-77
2022/09/03 11:22:52;;;;;;;2.80;2.47;;;19.50;85.00;;;;;;5044189;28;20013;-78
2022/09/03 11:25:24;;;;;;;2.22;1.90;;;19.50;85.00;;;;;;5043397;28;20040;-78
2022/09/03 11:28:18;;;;;;;4.47;2.58;;;19.50;85.10;;;;;;5030078;28;20502;-77
2022/09/03 11:31:30;;;;;;;3.78;2.63;;;19.50;84.80;;;;;;5034707;28;20056;-78
2022/09/03 11:34:13;;;;;;;2.70;2.22;;;19.50;84.90;;;;;;5025446;28;20021;-78
2022/09/03 11:36:40;;;;;;;3.45;2.75;;;19.60;84.70;;;;;;5036213;28;20081;-78
2022/09/03 11:39:19;;;;;;;3.70;3.33;;;19.50;84.70;;;;;;5047295;28;20074;-77
2022/09/03 11:41:57;;;;;;;3.58;3.10;;;19.50;84.50;;;;;;5041534;28;20026;-77
2022/09/03 11:44:23;;;;;;;3.00;2.70;;;19.50;84.60;;;;;;5056355;28;20054;-78
2022/09/03 11:46:56;;;;;;;3.95;2.85;;;19.50;84.70;;;;;;5035382;28;20025;-78
2022/09/03 11:49:31;;;;;;;3.58;2.63;;;19.50;85.20;;;;;;5049298;28;20053;-78
2022/09/03 11:52:08;;;;;;;4.13;2.83;;;19.60;85.50;;;;;;5035763;28;20113;-78
2022/09/03 11:54:45;;;;;;;5.18;2.78;;;19.60;85.10;;;;;;5035147;28;20075;-79
2022/09/03 11:57:12;;;;;;;3.33;3.03;;;19.50;84.80;;;;;;5045462;28;20104;-78
2022/09/03 11:59:41;;;;;;;6.00;3.15;;;19.50;84.80;;;;;;5036954;28;20029;-77
2022/09/03 12:02:32;;;;;;;2.55;2.35;;;19.50;84.90;;;;;;5039902;28;20033;-77
2022/09/03 12:05:24;;;;;;;3.42;3.10;;;19.50;85.70;;;;;;5019209;28;20079;-77
2022/09/03 12:08:15;;;;;;;6.13;2.80;;;19.50;84.90;;;;;;5049338;28;20033;-78
2022/09/03 12:11:15;;;;;;;3.28;2.97;;;19.50;85.20;;;;;;5041825;28;20032;-78
2022/09/03 12:13:56;;;;;;;4.00;3.25;;;19.50;85.10;;;;;;5031010;28;20111;-78
2022/09/03 12:16:37;;;;;;;3.35;3.05;;;19.50;84.90;;;;;;5034620;28;20033;-78
2022/09/03 12:19:10;;;;;;;3.95;3.42;;;19.50;85.20;;;;;;5045875;28;20032;-79
2022/09/03 12:21:39;;;;;;;4.72;4.18;;;19.50;85.10;;;;;;5048934;28;20052;-79
2022/09/03 12:24:10;;;;;;;4.80;3.50;;;19.50;85.60;;;;;;5030813;28;20030;-79
2022/09/03 12:26:41;;;;;;;5.07;3.55;;;19.60;85.90;;;;;;5032582;28;20060;-78
2022/09/03 12:29:23;;;;;;;4.15;3.38;;;19.60;85.60;;;;;;5034059;28;20033;-79
2022/09/03 12:31:50;;;;;;;4.10;3.53;;;19.60;86.70;;;;;;5039548;28;20401;-77
2022/09/03 12:34:18;;;;;;;5.50;3.97;;;19.70;86.40;;;;;;5039485;28;20052;-79
2022/09/03 12:36:50;;;;;;;5.18;4.68;;;19.70;86.40;;;;;;5042755;28;20036;-79
2022/09/03 12:39:23;;;;;;;6.55;4.30;;;19.60;86.50;;;;;;5039522;28;20037;-79
2022/09/03 12:42:05;;;;;;;4.00;3.60;;;19.70;87.30;;;;;;5043145;28;20486;-79
2022/09/03 12:44:36;;;;;;;3.88;3.50;;;19.70;87.20;;;;;;5032510;28;20622;-77
2022/09/03 12:47:11;;;;;;;3.88;3.47;;;19.70;86.90;;;;;;5028639;28;20026;-78
2022/09/03 12:49:39;;;;;;;5.32;4.60;;;19.70;87.90;;;;;;5029101;28;20051;-78
2022/09/03 12:52:25;;;;;;;4.90;4.10;;;19.70;87.50;;;;;;5035798;28;20049;-78
2022/09/03 12:55:04;;;;;;;5.22;4.30;;;19.70;87.20;;;;;;5048372;28;20086;-79
2022/09/03 12:57:44;;;;;;;5.18;4.68;;;19.70;86.90;;;;;;5043032;28;20056;-79
2022/09/03 13:00:14;;;;;;;4.13;3.65;;;19.70;88.00;;;;;;5030184;28;20037;-79
2022/09/03 13:02:55;;;;;;;6.10;5.05;;;19.70;87.90;;;;;;5031863;28;20029;-78
2022/09/03 13:05:33;;;;;;;6.20;5.28;;;19.70;88.00;;;;;;5035901;28;20021;-79
2022/09/03 13:08:05;;;;;;;8.52;4.57;;;19.70;88.00;;;;;;5043766;28;20032;-79
2022/09/03 13:10:36;;;;;;;5.72;4.97;;;19.70;87.90;;;;;;5035753;28;20045;-79
2022/09/03 13:13:23;;;;;;;8.95;6.55;;;19.70;88.00;;;;;;5029881;28;20108;-79
2022/09/03 13:16:14;;;;;;;6.10;5.50;;;19.70;88.10;;;;;;5030853;28;20548;-79
2022/09/03 13:18:55;;;;;;;6.25;5.65;;;19.70;87.90;;;;;;5028326;28;20497;-79
2022/09/03 13:21:33;;;;;;;6.15;5.50;;;19.70;87.90;;;;;;5029709;28;20028;-78
2022/09/03 13:24:15;;;;;;;7.63;5.85;;;19.70;88.40;;;;;;5037058;28;20025;-77